createdAt,value
2016-08-14T00:00:19.806Z,0
2016-08-14T00:01:19.797Z,0
2016-08-14T00:02:19.882Z,0
2016-08-14T00:03:19.776Z,0
2016-08-14T00:04:19.793Z,0
2016-08-14T00:05:19.814Z,0
2016-08-14T00:06:19.810Z,0
2016-08-14T00:07:19.784Z,0
2016-08-14T00:08:19.771Z,0
2016-08-14T00:09:19.730Z,0
2016-08-14T00:10:19.763Z,0
2016-08-14T00:11:19.754Z,0
2016-08-14T00:12:19.721Z,0
2016-08-14T00:13:19.729Z,0
2016-08-14T00:14:19.754Z,0
2016-08-14T00:15:19.738Z,0
2016-08-14T00:16:19.709Z,0
2016-08-14T00:17:19.724Z,0
2016-08-14T00:18:19.718Z,0
2016-08-14T00:19:19.711Z,0
2016-08-14T00:20:19.698Z,0
2016-08-14T00:21:19.739Z,0
2016-08-14T00:22:19.694Z,0
2016-08-14T00:23:19.680Z,0
2016-08-14T00:24:19.698Z,0
2016-08-14T00:25:19.691Z,0
2016-08-14T00:26:19.685Z,0
2016-08-14T00:27:20.362Z,0
2016-08-14T00:28:19.662Z,0
2016-08-14T00:29:19.705Z,0
2016-08-14T00:30:19.662Z,0
2016-08-14T00:31:20.352Z,0
2016-08-14T00:32:19.646Z,0
2016-08-14T00:33:20.389Z,0
2016-08-14T00:34:20.517Z,0
2016-08-14T00:35:19.624Z,0
2016-08-14T00:36:19.624Z,0
2016-08-14T00:37:19.638Z,0
2016-08-14T00:38:19.634Z,0
2016-08-14T00:39:19.611Z,0
2016-08-14T00:40:19.691Z,0
2016-08-14T00:41:19.660Z,0
2016-08-14T00:42:19.572Z,0
2016-08-14T00:43:19.594Z,0
2016-08-14T00:44:20.330Z,0
2016-08-14T00:45:19.591Z,0
2016-08-14T00:46:19.603Z,0
2016-08-14T00:47:19.592Z,0
2016-08-14T00:48:19.575Z,0
2016-08-14T00:49:19.579Z,0
2016-08-14T00:50:19.568Z,0
2016-08-14T00:51:19.551Z,0
2016-08-14T00:52:19.558Z,0
2016-08-14T00:53:19.549Z,0
2016-08-14T00:54:19.674Z,0
2016-08-14T00:55:20.296Z,0
2016-08-14T00:56:19.525Z,0
2016-08-14T00:57:19.507Z,0
2016-08-14T00:58:19.505Z,0
2016-08-14T00:59:19.523Z,0
2016-08-14T01:00:19.519Z,0
2016-08-14T01:01:19.497Z,0
2016-08-14T01:02:19.492Z,0
2016-08-14T01:03:19.513Z,0
2016-08-14T01:04:19.479Z,0
2016-08-14T01:05:21.716Z,0
2016-08-14T01:06:19.453Z,0
2016-08-14T01:07:19.458Z,0
2016-08-14T01:08:19.445Z,0
2016-08-14T01:09:19.445Z,0
2016-08-14T01:10:19.448Z,0
2016-08-14T01:11:19.456Z,0
2016-08-14T01:12:19.439Z,0
2016-08-14T01:13:19.434Z,0
2016-08-14T01:14:19.523Z,0
2016-08-14T01:15:19.455Z,0
2016-08-14T01:16:19.510Z,0
2016-08-14T01:17:19.427Z,0
2016-08-14T01:18:19.462Z,0
2016-08-14T01:19:19.460Z,0
2016-08-14T01:20:19.394Z,0
2016-08-14T01:21:20.150Z,0
2016-08-14T01:22:19.385Z,0
2016-08-14T01:23:20.140Z,0
2016-08-14T01:24:19.400Z,0
2016-08-14T01:25:19.404Z,0
2016-08-14T01:26:19.367Z,0
2016-08-14T01:27:19.409Z,0
2016-08-14T01:28:19.386Z,0
2016-08-14T01:29:19.357Z,0
2016-08-14T01:30:19.360Z,0
2016-08-14T01:31:20.077Z,0
2016-08-14T01:32:19.440Z,0
2016-08-14T01:33:19.356Z,0
2016-08-14T01:34:19.345Z,0
2016-08-14T01:35:19.436Z,0
2016-08-14T01:36:19.436Z,0
2016-08-14T01:37:19.309Z,0
2016-08-14T01:38:19.366Z,0
2016-08-14T01:39:19.336Z,0
2016-08-14T01:40:19.308Z,0
2016-08-14T01:41:19.336Z,0
2016-08-14T01:42:19.334Z,0
2016-08-14T01:43:19.380Z,0
2016-08-14T01:44:19.289Z,0
2016-08-14T01:45:19.316Z,0
2016-08-14T01:46:19.281Z,0
2016-08-14T01:47:19.279Z,0
2016-08-14T01:48:19.254Z,0
2016-08-14T01:49:19.271Z,0
2016-08-14T01:50:19.324Z,0
2016-08-14T01:51:20.068Z,0
2016-08-14T01:52:19.255Z,0
2016-08-14T01:53:19.260Z,0
2016-08-14T01:54:19.244Z,0
2016-08-14T01:55:19.299Z,0
2016-08-14T01:56:19.445Z,0
2016-08-14T01:57:19.262Z,0
2016-08-14T01:58:20.216Z,0
2016-08-14T01:59:19.222Z,0
2016-08-14T02:00:19.392Z,0
2016-08-14T02:01:19.984Z,0
2016-08-14T02:02:19.218Z,0
2016-08-14T02:03:19.201Z,0
2016-08-14T02:04:19.213Z,0
2016-08-14T02:05:19.190Z,0
2016-08-14T02:06:20.226Z,0
2016-08-14T02:07:19.326Z,0
2016-08-14T02:08:19.356Z,0
2016-08-14T02:09:19.940Z,0
2016-08-14T02:10:19.179Z,0
2016-08-14T02:11:19.211Z,0
2016-08-14T02:12:19.148Z,0
2016-08-14T02:13:20.802Z,0
2016-08-14T02:14:19.136Z,0
2016-08-14T02:15:19.152Z,0
2016-08-14T02:16:19.223Z,0
2016-08-14T02:17:19.255Z,0
2016-08-14T02:18:19.242Z,0
2016-08-14T02:19:19.131Z,0
2016-08-14T02:20:19.131Z,0
2016-08-14T02:21:19.886Z,0
2016-08-14T02:22:19.157Z,0
2016-08-14T02:23:19.106Z,0
2016-08-14T02:24:19.211Z,0
2016-08-14T02:25:19.095Z,0
2016-08-14T02:26:19.156Z,0
2016-08-14T02:27:19.772Z,0
2016-08-14T02:28:19.067Z,0
2016-08-14T02:29:19.114Z,0
2016-08-14T02:30:19.064Z,0
2016-08-14T02:31:19.081Z,0
2016-08-14T02:32:19.059Z,0
2016-08-14T02:33:19.051Z,0
2016-08-14T02:34:19.046Z,0
2016-08-14T02:35:19.052Z,0
2016-08-14T02:36:19.054Z,0
2016-08-14T02:37:19.151Z,0
2016-08-14T02:38:19.016Z,0
2016-08-14T02:39:19.008Z,0
2016-08-14T02:40:19.063Z,0
2016-08-14T02:41:19.008Z,0
2016-08-14T02:42:19.012Z,0
2016-08-14T02:43:18.989Z,0
2016-08-14T02:44:18.996Z,0
2016-08-14T02:45:19.049Z,0
2016-08-14T02:46:18.989Z,0
2016-08-14T02:47:18.962Z,0
2016-08-14T02:48:19.673Z,0
2016-08-14T02:49:18.965Z,0
2016-08-14T02:50:19.690Z,0
2016-08-14T02:51:18.965Z,0
2016-08-14T02:52:18.975Z,0
2016-08-14T02:53:18.969Z,0
2016-08-14T02:54:18.942Z,0
2016-08-14T02:55:18.930Z,0
2016-08-14T02:56:18.918Z,0
2016-08-14T02:57:18.931Z,0
2016-08-14T02:58:18.948Z,0
2016-08-14T02:59:18.911Z,0
2016-08-14T03:00:18.903Z,0
2016-08-14T03:01:19.635Z,0
2016-08-14T03:02:18.897Z,0
2016-08-14T03:03:18.887Z,0
2016-08-14T03:04:18.892Z,0
2016-08-14T03:05:18.878Z,0
2016-08-14T03:06:18.891Z,0
2016-08-14T03:07:18.844Z,0
2016-08-14T03:08:18.862Z,0
2016-08-14T03:09:18.963Z,0
2016-08-14T03:10:18.829Z,0
2016-08-14T03:11:18.902Z,0
2016-08-14T03:12:18.838Z,0
2016-08-14T03:13:18.877Z,0
2016-08-14T03:14:18.879Z,0
2016-08-14T03:15:18.812Z,0
2016-08-14T03:16:18.813Z,0
2016-08-14T03:17:18.848Z,0
2016-08-14T03:18:18.788Z,0
2016-08-14T03:19:18.795Z,0
2016-08-14T03:20:18.817Z,0
2016-08-14T03:21:18.803Z,0
2016-08-14T03:22:18.813Z,0
2016-08-14T03:23:18.803Z,0
2016-08-14T03:24:18.780Z,4
2016-08-14T03:25:19.564Z,4
2016-08-14T03:26:18.776Z,0
2016-08-14T03:27:18.743Z,4
2016-08-14T03:28:18.730Z,4
2016-08-14T03:29:18.760Z,8
2016-08-14T03:30:18.722Z,4
2016-08-14T03:31:18.726Z,8
2016-08-14T03:32:18.720Z,8
2016-08-14T03:33:18.707Z,8
2016-08-14T03:34:18.743Z,12
2016-08-14T03:35:18.886Z,12
2016-08-14T03:36:18.694Z,12
2016-08-14T03:37:18.691Z,16
2016-08-14T03:38:18.744Z,16
2016-08-14T03:39:18.715Z,20
2016-08-14T03:40:18.698Z,24
2016-08-14T03:41:18.649Z,28
2016-08-14T03:42:18.652Z,32
2016-08-14T03:43:18.744Z,40
2016-08-14T03:44:18.651Z,48
2016-08-14T03:45:18.735Z,52
2016-08-14T03:46:18.623Z,60
2016-08-14T03:47:18.600Z,68
2016-08-14T03:48:19.341Z,72
2016-08-14T03:49:18.618Z,84
2016-08-14T03:50:18.652Z,88
2016-08-14T03:51:18.696Z,100
2016-08-14T03:52:18.651Z,112
2016-08-14T03:53:18.600Z,120
2016-08-14T03:54:18.572Z,132
2016-08-14T03:55:18.607Z,144
2016-08-14T03:56:18.564Z,156
2016-08-14T03:57:18.631Z,168
2016-08-14T03:58:18.591Z,180
2016-08-14T03:59:18.580Z,200
2016-08-14T04:00:18.556Z,212
2016-08-14T04:01:18.561Z,236
2016-08-14T04:02:18.553Z,256
2016-08-14T04:03:18.523Z,284
2016-08-14T04:04:18.569Z,304
2016-08-14T04:05:18.540Z,328
2016-08-14T04:06:18.532Z,352
2016-08-14T04:07:18.513Z,380
2016-08-14T04:08:18.504Z,408
2016-08-14T04:09:18.517Z,440
2016-08-14T04:10:18.522Z,476
2016-08-14T04:11:18.568Z,516
2016-08-14T04:12:18.486Z,556
2016-08-14T04:13:18.646Z,588
2016-08-14T04:14:18.464Z,620
2016-08-14T04:15:18.494Z,648
2016-08-14T04:16:18.443Z,676
2016-08-14T04:17:18.476Z,724
2016-08-14T04:18:18.450Z,780
2016-08-14T04:19:18.741Z,836
2016-08-14T04:20:18.421Z,880
2016-08-14T04:21:18.441Z,912
2016-08-14T04:22:18.424Z,936
2016-08-14T04:23:18.423Z,948
2016-08-14T04:24:18.407Z,964
2016-08-14T04:25:18.399Z,980
2016-08-14T04:26:18.409Z,1008
2016-08-14T04:27:33.506Z,1068
2016-08-14T04:28:18.422Z,1108
2016-08-14T04:29:18.401Z,1160
2016-08-14T04:30:18.388Z,1208
2016-08-14T04:31:18.382Z,1244
2016-08-14T04:32:19.108Z,1272
2016-08-14T04:33:18.361Z,1320
2016-08-14T04:34:18.331Z,1420
2016-08-14T04:35:18.380Z,1540
2016-08-14T04:36:18.327Z,1652
2016-08-14T04:37:18.351Z,1704
2016-08-14T04:38:18.385Z,1740
2016-08-14T04:39:18.332Z,1764
2016-08-14T04:40:18.319Z,1816
2016-08-14T04:41:19.031Z,1920
2016-08-14T04:42:18.287Z,2016
2016-08-14T04:43:18.296Z,2068
2016-08-14T04:44:18.287Z,2124
2016-08-14T04:45:18.288Z,2192
2016-08-14T04:46:18.282Z,2252
2016-08-14T04:47:18.281Z,2308
2016-08-14T04:48:19.025Z,2360
2016-08-14T04:49:18.320Z,2408
2016-08-14T04:50:18.312Z,2448
2016-08-14T04:51:18.247Z,2480
2016-08-14T04:52:18.235Z,2500
2016-08-14T04:53:18.233Z,2500
2016-08-14T04:54:18.352Z,2552
2016-08-14T04:55:18.238Z,2628
2016-08-14T04:56:18.219Z,2672
2016-08-14T04:57:18.247Z,2732
2016-08-14T04:58:18.213Z,2808
2016-08-14T04:59:18.219Z,2868
2016-08-14T05:00:18.186Z,2916
2016-08-14T05:01:18.198Z,2972
2016-08-14T05:02:18.181Z,3028
2016-08-14T05:03:18.189Z,3076
2016-08-14T05:04:18.175Z,3108
2016-08-14T05:05:18.862Z,3156
2016-08-14T05:06:18.208Z,3204
2016-08-14T05:07:18.150Z,3260
2016-08-14T05:08:18.148Z,3348
2016-08-14T05:09:18.154Z,3396
2016-08-14T05:10:18.869Z,3432
2016-08-14T05:11:18.119Z,3460
2016-08-14T05:12:18.131Z,3480
2016-08-14T05:13:18.091Z,3524
2016-08-14T05:14:18.856Z,3576
2016-08-14T05:15:18.105Z,3620
2016-08-14T05:16:18.138Z,3644
2016-08-14T05:17:18.107Z,3652
2016-08-14T05:18:18.817Z,3636
2016-08-14T05:19:18.097Z,3536
2016-08-14T05:20:18.083Z,3640
2016-08-14T05:21:18.054Z,3908
2016-08-14T05:22:18.071Z,3956
2016-08-14T05:23:18.067Z,3952
2016-08-14T05:24:18.045Z,4000
2016-08-14T05:25:18.072Z,4104
2016-08-14T05:26:18.044Z,4200
2016-08-14T05:27:18.076Z,4120
2016-08-14T05:28:18.029Z,3928
2016-08-14T05:29:18.071Z,4040
2016-08-14T05:30:18.046Z,4220
2016-08-14T05:31:18.047Z,4104
2016-08-14T05:32:19.034Z,4112
2016-08-14T05:33:18.016Z,4352
2016-08-14T05:34:17.999Z,4536
2016-08-14T05:35:18.001Z,4620
2016-08-14T05:36:18.023Z,4696
2016-08-14T05:37:17.983Z,4676
2016-08-14T05:38:17.981Z,4848
2016-08-14T05:39:17.999Z,4588
2016-08-14T05:40:17.979Z,5020
2016-08-14T05:41:17.967Z,5224
2016-08-14T05:42:17.951Z,5384
2016-08-14T05:43:17.984Z,5532
2016-08-14T05:44:17.947Z,5628
2016-08-14T05:45:17.941Z,5696
2016-08-14T05:46:17.947Z,5784
2016-08-14T05:47:17.948Z,5856
2016-08-14T05:48:17.940Z,5924
2016-08-14T05:49:17.938Z,6020
2016-08-14T05:50:17.983Z,6092
2016-08-14T05:51:17.937Z,5968
2016-08-14T05:52:17.993Z,6044
2016-08-14T05:53:18.020Z,6280
2016-08-14T05:54:17.942Z,6312
2016-08-14T05:55:17.933Z,6332
2016-08-14T05:56:17.977Z,6212
2016-08-14T05:57:17.910Z,6236
2016-08-14T05:58:17.952Z,6256
2016-08-14T05:59:17.885Z,6284
2016-08-14T06:00:17.848Z,6320
2016-08-14T06:01:17.932Z,6484
2016-08-14T06:02:17.893Z,6612
2016-08-14T06:03:17.886Z,6784
2016-08-14T06:04:17.878Z,6836
2016-08-14T06:05:17.845Z,6868
2016-08-14T06:06:17.876Z,6796
2016-08-14T06:07:17.877Z,7052
2016-08-14T06:08:18.718Z,7224
2016-08-14T06:09:17.843Z,7184
2016-08-14T06:10:17.865Z,7044
2016-08-14T06:11:17.838Z,6776
2016-08-14T06:12:17.843Z,6452
2016-08-14T06:13:17.836Z,6572
2016-08-14T06:14:17.824Z,7376
2016-08-14T06:15:17.870Z,7508
2016-08-14T06:16:17.915Z,7072
2016-08-14T06:17:17.798Z,6824
2016-08-14T06:18:17.971Z,7064
2016-08-14T06:19:17.800Z,6628
2016-08-14T06:20:17.826Z,6624
2016-08-14T06:21:17.781Z,6616
2016-08-14T06:22:17.802Z,6620
2016-08-14T06:23:18.019Z,6740
2016-08-14T06:24:17.975Z,6280
2016-08-14T06:25:18.556Z,6020
2016-08-14T06:26:17.778Z,6176
2016-08-14T06:27:18.554Z,6900
2016-08-14T06:28:17.930Z,6996
2016-08-14T06:29:17.766Z,6924
2016-08-14T06:30:17.772Z,6948
2016-08-14T06:31:17.752Z,6904
2016-08-14T06:32:17.751Z,6968
2016-08-14T06:33:17.743Z,7068
2016-08-14T06:34:17.775Z,6804
2016-08-14T06:35:17.772Z,3536
2016-08-14T06:36:17.871Z,5408
2016-08-14T06:37:17.728Z,5540
2016-08-14T06:38:17.793Z,5672
2016-08-14T06:39:17.741Z,5952
2016-08-14T06:40:17.717Z,5956
2016-08-14T06:41:17.732Z,6024
2016-08-14T06:42:17.743Z,6120
2016-08-14T06:43:17.729Z,7332
2016-08-14T06:44:17.712Z,8128
2016-08-14T06:45:17.745Z,6840
2016-08-14T06:46:17.785Z,7764
2016-08-14T06:47:17.727Z,9488
2016-08-14T06:48:17.704Z,7804
2016-08-14T06:49:17.701Z,8036
2016-08-14T06:50:17.793Z,8548
2016-08-14T06:51:24.014Z,9532
2016-08-14T06:52:38.925Z,11776
2016-08-14T06:53:24.155Z,14472
2016-08-14T06:54:33.504Z,17024
2016-08-14T06:56:17.712Z,15728
2016-08-14T06:57:17.669Z,14964
2016-08-14T06:58:17.672Z,14688
2016-08-14T06:59:17.658Z,15220
2016-08-14T07:00:17.673Z,6944
2016-08-14T07:01:17.887Z,7784
2016-08-14T07:02:17.699Z,9324
2016-08-14T07:03:17.673Z,34048
2016-08-14T07:04:18.573Z,19424
2016-08-14T07:05:17.657Z,16672
2016-08-14T07:06:17.660Z,10420
2016-08-14T07:07:17.667Z,10740
2016-08-14T07:08:17.641Z,10324
2016-08-14T07:09:17.649Z,9648
2016-08-14T07:10:18.385Z,9896
2016-08-14T07:11:17.656Z,9840
2016-08-14T07:12:17.719Z,10188
2016-08-14T07:13:17.806Z,9984
2016-08-14T07:14:17.669Z,10600
2016-08-14T07:15:17.654Z,10676
2016-08-14T07:16:17.650Z,10940
2016-08-14T07:17:17.673Z,11692
2016-08-14T07:18:17.652Z,12960
2016-08-14T07:19:17.650Z,13124
2016-08-14T07:20:17.655Z,11520
2016-08-14T07:21:17.659Z,12040
2016-08-14T07:22:17.658Z,12556
2016-08-14T07:23:17.632Z,13172
2016-08-14T07:24:17.713Z,13244
2016-08-14T07:25:17.649Z,13028
2016-08-14T07:26:17.632Z,10948
2016-08-14T07:27:17.715Z,9708
2016-08-14T07:28:17.652Z,9976
2016-08-14T07:29:17.658Z,10808
2016-08-14T07:30:18.533Z,11100
2016-08-14T07:31:17.665Z,10208
2016-08-14T07:32:17.686Z,9216
2016-08-14T07:33:17.672Z,9124
2016-08-14T07:34:18.502Z,8132
2016-08-14T07:35:17.697Z,7244
2016-08-14T07:36:17.713Z,7624
2016-08-14T07:37:17.671Z,7740
2016-08-14T07:38:17.670Z,7664
2016-08-14T07:39:17.680Z,7920
2016-08-14T07:40:17.698Z,7528
2016-08-14T07:41:17.673Z,6780
2016-08-14T07:42:17.678Z,7108
2016-08-14T07:43:17.680Z,8624
2016-08-14T07:44:17.665Z,8900
2016-08-14T07:45:17.689Z,9236
2016-08-14T07:46:17.700Z,9248
2016-08-14T07:47:17.704Z,9944
2016-08-14T07:48:17.711Z,9352
2016-08-14T07:49:18.423Z,8544
2016-08-14T07:50:17.702Z,7344
2016-08-14T07:51:17.713Z,7640
2016-08-14T07:52:17.695Z,7108
2016-08-14T07:53:17.685Z,6500
2016-08-14T07:54:17.688Z,5928
2016-08-14T07:55:18.414Z,5512
2016-08-14T07:56:17.713Z,5880
2016-08-14T07:57:17.691Z,5912
2016-08-14T07:58:17.768Z,6036
2016-08-14T07:59:18.441Z,6124
2016-08-14T08:00:17.684Z,6060
2016-08-14T08:01:17.725Z,5992
2016-08-14T08:02:17.705Z,5956
2016-08-14T08:03:17.710Z,5996
2016-08-14T08:04:17.702Z,5584
2016-08-14T08:05:18.440Z,5392
2016-08-14T08:06:17.701Z,5284
2016-08-14T08:07:17.698Z,5264
2016-08-14T08:08:17.697Z,5148
2016-08-14T08:09:17.729Z,5044
2016-08-14T08:10:17.735Z,5060
2016-08-14T08:11:17.771Z,5116
2016-08-14T08:12:17.707Z,5424
2016-08-14T08:13:17.722Z,6156
2016-08-14T08:14:17.744Z,6696
2016-08-14T08:15:17.684Z,6884
2016-08-14T08:16:17.717Z,6124
2016-08-14T08:17:17.715Z,5700
2016-08-14T08:18:17.730Z,6060
2016-08-14T08:19:17.718Z,6892
2016-08-14T08:20:17.750Z,7972
2016-08-14T08:21:17.718Z,9644
2016-08-14T08:22:17.716Z,10876
2016-08-14T08:23:17.721Z,11040
2016-08-14T08:24:17.711Z,10060
2016-08-14T08:25:17.695Z,8804
2016-08-14T08:26:17.733Z,7648
2016-08-14T08:27:17.699Z,7360
2016-08-14T08:28:18.476Z,7864
2016-08-14T08:29:17.706Z,8180
2016-08-14T08:30:17.797Z,7808
2016-08-14T08:31:17.728Z,7236
2016-08-14T08:32:17.701Z,6368
2016-08-14T08:33:17.702Z,5816
2016-08-14T08:34:17.708Z,5296
2016-08-14T08:35:18.433Z,4984
2016-08-14T08:36:17.740Z,4936
2016-08-14T08:37:17.743Z,5172
2016-08-14T08:38:17.711Z,5272
2016-08-14T08:39:17.736Z,5424
2016-08-14T08:40:17.713Z,5452
2016-08-14T08:41:17.731Z,5444
2016-08-14T08:42:17.744Z,5248
2016-08-14T08:43:17.777Z,5296
2016-08-14T08:44:17.732Z,5388
2016-08-14T08:45:17.739Z,5492
2016-08-14T08:46:17.751Z,5900
2016-08-14T08:47:17.714Z,6816
2016-08-14T08:48:17.726Z,7536
2016-08-14T08:49:17.797Z,8292
2016-08-14T08:50:17.732Z,9884
2016-08-14T08:51:17.730Z,10692
2016-08-14T08:52:17.756Z,10408
2016-08-14T08:53:17.757Z,9728
2016-08-14T08:54:17.758Z,8308
2016-08-14T08:55:17.791Z,7328
2016-08-14T08:56:17.869Z,6812
2016-08-14T08:57:17.756Z,6132
2016-08-14T08:58:17.798Z,5240
2016-08-14T08:59:17.756Z,5088
2016-08-14T09:00:17.746Z,5336
2016-08-14T09:01:17.762Z,5628
2016-08-14T09:02:18.488Z,5644
2016-08-14T09:03:17.752Z,5516
2016-08-14T09:04:17.810Z,5780
2016-08-14T09:05:17.763Z,6140
2016-08-14T09:06:17.771Z,6448
2016-08-14T09:07:17.755Z,6712
2016-08-14T09:08:17.760Z,6704
2016-08-14T09:09:17.767Z,6928
2016-08-14T09:10:17.798Z,7340
2016-08-14T09:11:17.765Z,7132
2016-08-14T09:12:17.756Z,6368
2016-08-14T09:13:17.765Z,5812
2016-08-14T09:14:17.867Z,5516
2016-08-14T09:15:17.808Z,5308
2016-08-14T09:16:17.784Z,5476
2016-08-14T09:17:17.767Z,5456
2016-08-14T09:18:17.752Z,5444
2016-08-14T09:19:17.778Z,5380
2016-08-14T09:20:17.777Z,5428
2016-08-14T09:21:17.796Z,5772
2016-08-14T09:22:18.626Z,6196
2016-08-14T09:23:17.777Z,6392
2016-08-14T09:24:17.778Z,7628
2016-08-14T09:25:17.768Z,8160
2016-08-14T09:26:17.785Z,8752
2016-08-14T09:27:17.776Z,8120
2016-08-14T09:28:17.770Z,7732
2016-08-14T09:29:17.766Z,8064
2016-08-14T09:30:17.754Z,6988
2016-08-14T09:31:17.801Z,6712
2016-08-14T09:32:17.780Z,6764
2016-08-14T09:33:17.942Z,7240
2016-08-14T09:34:17.778Z,7520
2016-08-14T09:35:18.505Z,8044
2016-08-14T09:36:17.785Z,7976
2016-08-14T09:37:17.876Z,6796
2016-08-14T09:38:17.796Z,6476
2016-08-14T09:39:17.834Z,6996
2016-08-14T09:40:17.777Z,8024
2016-08-14T09:41:17.796Z,8340
2016-08-14T09:42:17.770Z,8304
2016-08-14T09:43:17.783Z,8344
2016-08-14T09:44:17.802Z,8008
2016-08-14T09:45:17.831Z,7964
2016-08-14T09:46:17.790Z,7628
2016-08-14T09:47:17.779Z,7624
2016-08-14T09:48:17.817Z,7848
2016-08-14T09:49:17.852Z,8548
2016-08-14T09:50:18.512Z,9396
2016-08-14T09:51:17.982Z,9644
2016-08-14T09:52:17.783Z,10136
2016-08-14T09:53:17.795Z,10492
2016-08-14T09:54:17.797Z,10412
2016-08-14T09:55:17.807Z,9960
2016-08-14T09:56:18.598Z,9380
2016-08-14T09:57:17.803Z,8668
2016-08-14T09:58:17.794Z,8264
2016-08-14T09:59:18.692Z,8248
2016-08-14T10:00:17.811Z,8228
2016-08-14T10:01:17.886Z,5400
2016-08-14T10:02:17.861Z,7788
2016-08-14T10:03:17.812Z,7528
2016-08-14T10:04:17.807Z,7744
2016-08-14T10:05:17.797Z,8272
2016-08-14T10:06:17.833Z,9280
2016-08-14T10:07:17.809Z,10512
2016-08-14T10:08:17.818Z,10660
2016-08-14T10:09:17.830Z,9976
2016-08-14T10:10:17.839Z,8896
2016-08-14T10:11:17.838Z,9084
2016-08-14T10:12:17.814Z,9840
2016-08-14T10:13:17.845Z,9008
2016-08-14T10:14:17.856Z,7380
2016-08-14T10:15:18.073Z,6720
2016-08-14T10:16:17.843Z,6596
2016-08-14T10:17:17.853Z,7060
2016-08-14T10:18:17.861Z,7580
2016-08-14T10:19:17.867Z,7528
2016-08-14T10:20:18.011Z,7528
2016-08-14T10:21:17.844Z,8028
2016-08-14T10:22:17.828Z,8352
2016-08-14T10:23:17.855Z,8112
2016-08-14T10:24:17.868Z,8004
2016-08-14T10:25:17.861Z,7668
2016-08-14T10:26:18.563Z,7184
2016-08-14T10:27:17.971Z,7296
2016-08-14T10:28:18.629Z,7900
2016-08-14T10:29:17.864Z,7340
2016-08-14T10:30:17.843Z,7504
2016-08-14T10:31:17.869Z,8680
2016-08-14T10:32:17.854Z,9428
2016-08-14T10:33:17.877Z,10936
2016-08-14T10:34:17.857Z,11496
2016-08-14T10:35:17.880Z,11448
2016-08-14T10:36:17.893Z,11504
2016-08-14T10:37:17.897Z,11464
2016-08-14T10:38:17.888Z,12164
2016-08-14T10:39:17.875Z,12268
2016-08-14T10:40:17.865Z,11340
2016-08-14T10:41:17.887Z,11020
2016-08-14T10:42:17.902Z,9820
2016-08-14T10:43:17.870Z,9836
2016-08-14T10:44:17.903Z,10380
2016-08-14T10:45:17.924Z,9960
2016-08-14T10:46:17.914Z,8796
2016-08-14T10:47:17.878Z,6820
2016-08-14T10:48:17.906Z,5532
2016-08-14T10:49:17.913Z,5472
2016-08-14T10:50:17.902Z,5824
2016-08-14T10:51:17.898Z,5620
2016-08-14T10:52:17.963Z,5324
2016-08-14T10:53:17.919Z,6680
2016-08-14T10:54:17.900Z,7404
2016-08-14T10:55:17.903Z,8620
2016-08-14T10:56:17.897Z,8488
2016-08-14T10:57:17.911Z,8520
2016-08-14T10:58:17.919Z,7748
2016-08-14T10:59:17.945Z,7060
2016-08-14T11:00:17.944Z,6832
2016-08-14T11:01:17.914Z,6624
2016-08-14T11:02:17.973Z,6368
2016-08-14T11:03:18.751Z,6228
2016-08-14T11:04:18.006Z,6316
2016-08-14T11:05:17.922Z,6964
2016-08-14T11:06:17.983Z,7232
2016-08-14T11:07:18.659Z,7200
2016-08-14T11:08:17.935Z,7268
2016-08-14T11:09:18.640Z,7264
2016-08-14T11:10:17.953Z,7760
2016-08-14T11:11:17.945Z,8292
2016-08-14T11:12:17.950Z,8956
2016-08-14T11:13:17.931Z,10600
2016-08-14T11:14:18.005Z,11428
2016-08-14T11:15:17.953Z,12528
2016-08-14T11:16:17.967Z,12752
2016-08-14T11:17:17.953Z,12312
2016-08-14T11:18:17.967Z,12052
2016-08-14T11:19:17.943Z,11656
2016-08-14T11:20:17.960Z,10072
2016-08-14T11:21:17.985Z,8364
2016-08-14T11:22:17.964Z,7988
2016-08-14T11:23:17.980Z,8072
2016-08-14T11:24:17.979Z,9404
2016-08-14T11:25:17.998Z,9616
2016-08-14T11:26:18.012Z,9240
2016-08-14T11:27:17.997Z,9092
2016-08-14T11:28:17.987Z,8044
2016-08-14T11:29:17.976Z,7548
2016-08-14T11:30:17.994Z,7452
2016-08-14T11:31:18.036Z,7656
2016-08-14T11:32:17.992Z,7420
2016-08-14T11:33:17.968Z,7524
2016-08-14T11:34:17.969Z,7216
2016-08-14T11:35:18.012Z,7080
2016-08-14T11:36:18.025Z,7440
2016-08-14T11:37:18.012Z,7392
2016-08-14T11:38:18.016Z,6980
2016-08-14T11:39:17.997Z,7428
2016-08-14T11:40:18.019Z,8360
2016-08-14T11:41:17.996Z,8948
2016-08-14T11:42:18.033Z,8912
2016-08-14T11:43:17.987Z,7440
2016-08-14T11:44:17.997Z,5820
2016-08-14T11:45:18.193Z,5892
2016-08-14T11:46:18.022Z,6624
2016-08-14T11:47:18.011Z,4576
2016-08-14T11:48:18.028Z,5852
2016-08-14T11:49:18.047Z,5776
2016-08-14T11:50:18.776Z,6020
2016-08-14T11:51:18.047Z,6328
2016-08-14T11:52:18.036Z,6708
2016-08-14T11:53:18.060Z,7016
2016-08-14T11:54:18.102Z,7220
2016-08-14T11:55:18.057Z,7144
2016-08-14T11:56:18.054Z,7112
2016-08-14T11:57:18.063Z,7056
2016-08-14T11:58:18.028Z,6644
2016-08-14T11:59:18.063Z,4660
2016-08-14T12:00:18.057Z,6204
2016-08-14T12:01:18.066Z,6968
2016-08-14T12:02:18.058Z,7164
2016-08-14T12:03:18.066Z,7216
2016-08-14T12:04:18.052Z,7684
2016-08-14T12:05:18.054Z,8020
2016-08-14T12:06:18.054Z,7788
2016-08-14T12:07:18.048Z,7608
2016-08-14T12:08:18.062Z,7568
2016-08-14T12:09:18.103Z,8536
2016-08-14T12:10:18.068Z,8516
2016-08-14T12:11:18.803Z,7904
2016-08-14T12:12:18.799Z,7540
2016-08-14T12:13:19.320Z,7104
2016-08-14T12:14:20.612Z,6956
2016-08-14T12:15:18.055Z,7288
2016-08-14T12:16:18.054Z,7788
2016-08-14T12:17:18.066Z,8400
2016-08-14T12:18:18.068Z,8464
2016-08-14T12:19:18.076Z,7872
2016-08-14T12:20:18.068Z,7700
2016-08-14T12:21:18.093Z,6720
2016-08-14T12:22:18.086Z,6236
2016-08-14T12:23:18.088Z,5516
2016-08-14T12:24:18.103Z,5312
2016-08-14T12:25:18.097Z,5344
2016-08-14T12:26:18.103Z,5804
2016-08-14T12:27:18.092Z,5536
2016-08-14T12:28:18.096Z,5568
2016-08-14T12:29:18.100Z,6688
2016-08-14T12:30:18.116Z,6676
2016-08-14T12:31:18.119Z,6436
2016-08-14T12:34:18.130Z,7840
2016-08-14T12:35:18.166Z,8324
2016-08-14T12:36:18.131Z,8088
2016-08-14T12:37:18.111Z,8220
2016-08-14T12:38:18.124Z,9772
2016-08-14T12:39:18.859Z,10388
2016-08-14T12:40:18.836Z,10308
2016-08-14T12:41:18.131Z,10072
2016-08-14T12:42:18.132Z,10104
2016-08-14T12:43:18.141Z,10728
2016-08-14T12:44:18.135Z,11336
2016-08-14T12:45:18.157Z,10364
2016-08-14T12:46:18.150Z,9164
2016-08-14T12:47:18.134Z,8512
2016-08-14T12:48:18.154Z,7728
2016-08-14T12:49:18.158Z,7696
2016-08-14T12:50:18.167Z,7572
2016-08-14T12:51:18.146Z,7600
2016-08-14T12:52:18.424Z,7396
2016-08-14T12:53:18.188Z,6472
2016-08-14T12:54:18.192Z,7036
2016-08-14T12:55:18.160Z,7752
2016-08-14T12:56:18.200Z,8252
2016-08-14T12:57:18.187Z,9244
2016-08-14T12:58:18.202Z,10576
2016-08-14T12:59:18.188Z,11704
2016-08-14T13:00:18.191Z,10312
2016-08-14T13:01:18.169Z,8476
2016-08-14T13:02:18.161Z,7584
2016-08-14T13:03:18.187Z,7344
2016-08-14T13:04:18.196Z,7656
2016-08-14T13:05:18.176Z,8268
2016-08-14T13:06:18.182Z,9508
2016-08-14T13:07:18.210Z,11000
2016-08-14T13:08:18.181Z,11324
2016-08-14T13:09:18.187Z,11376
2016-08-14T13:10:18.212Z,10824
2016-08-14T13:11:18.204Z,10628
2016-08-14T13:12:18.200Z,11168
2016-08-14T13:13:18.222Z,11380
2016-08-14T13:14:18.228Z,11388
2016-08-14T13:15:18.217Z,11076
2016-08-14T13:16:18.237Z,10748
2016-08-14T13:17:18.209Z,10576
2016-08-14T13:18:18.227Z,10628
2016-08-14T13:19:18.250Z,10064
2016-08-14T13:20:18.252Z,9296
2016-08-14T13:21:18.230Z,8172
2016-08-14T13:22:18.213Z,7092
2016-08-14T13:23:18.208Z,6100
2016-08-14T13:24:18.243Z,5472
2016-08-14T13:25:18.941Z,5260
2016-08-14T13:26:18.228Z,5276
2016-08-14T13:27:18.236Z,5320
2016-08-14T13:28:18.248Z,6052
2016-08-14T13:29:18.235Z,7300
2016-08-14T13:30:18.941Z,8036
2016-08-14T13:31:18.239Z,7980
2016-08-14T13:32:18.234Z,7700
2016-08-14T13:33:18.242Z,7748
2016-08-14T13:34:18.244Z,7816
2016-08-14T13:35:18.263Z,7768
2016-08-14T13:36:18.263Z,8628
2016-08-14T13:37:18.247Z,9820
2016-08-14T13:38:18.975Z,11192
2016-08-14T13:39:18.256Z,11900
2016-08-14T13:40:18.260Z,12376
2016-08-14T13:41:18.269Z,13544
2016-08-14T13:42:18.271Z,13528